Time;durP1;ratioP1;P1;durP2;ratioP2;P2;SDS_P1;SDS_P2;PMS_P1;PMS_P2;Temp;Humidity;BMP_temperature;BMP_pressure;BME280_temperature;BME280_humidity;BME280_pressure;Samples;Min_cycle;Max_cycle;Signal;HPM_P1;HPM_P2
2023/12/25 00:01:16;;;;;;;5.93;4.90;;;;;;;-143.54;100.00;59916.91;5093447;28;20058;-80
2023/12/25 00:03:41;;;;;;;6.68;3.80;;;;;;;-143.54;100.00;59916.91;5101214;28;20038;-80
2023/12/25 00:06:06;;;;;;;8.70;4.60;;;;;;;-143.54;100.00;59916.91;5096613;28;20032;-79
2023/12/25 00:08:31;;;;;;;5.10;3.47;;;;;;;-143.54;100.00;59916.91;5093231;28;20395;-80
2023/12/25 00:10:57;;;;;;;5.03;4.03;;;;;;;-143.54;100.00;59916.91;5092837;28;20044;-79
2023/12/25 00:13:22;;;;;;;6.35;3.80;;;;;;;-143.54;100.00;59916.91;5092660;28;20020;-79
2023/12/25 00:15:47;;;;;;;3.85;3.42;;;;;;;-143.54;100.00;59916.91;5092590;28;20454;-80
2023/12/25 00:18:12;;;;;;;5.72;3.40;;;;;;;-143.54;100.00;59916.91;5092921;28;20034;-80
2023/12/25 00:20:40;;;;;;;5.32;3.78;;;;;;;-143.54;100.00;59916.91;5092298;28;20020;-80
2023/12/25 00:23:06;;;;;;;5.70;4.20;;;;;;;-143.54;100.00;59916.91;5092964;28;20024;-80
2023/12/25 00:25:31;;;;;;;6.70;3.88;;;;;;;-143.54;100.00;59916.91;5093182;28;20360;-79
2023/12/25 00:27:57;;;;;;;5.70;4.07;;;;;;;-143.54;100.00;59916.91;5091892;28;20028;-79
2023/12/25 00:30:23;;;;;;;7.25;4.55;;;;;;;-143.54;100.00;59916.91;5087856;28;20057;-80
2023/12/25 00:32:48;;;;;;;5.78;3.65;;;;;;;-143.54;100.00;59916.91;5091566;28;20032;-79
2023/12/25 00:35:13;;;;;;;9.95;4.47;;;;;;;-143.54;100.00;59916.91;5091240;28;20066;-80
2023/12/25 00:37:38;;;;;;;6.13;4.07;;;;;;;-143.54;100.00;59916.91;5092628;28;20036;-80
2023/12/25 00:40:04;;;;;;;7.95;4.97;;;;;;;-143.54;100.00;59916.91;5092009;28;20116;-80
2023/12/25 00:42:30;;;;;;;9.82;5.00;;;;;;;-143.54;100.00;59916.91;5092024;28;20088;-79
2023/12/25 00:44:55;;;;;;;8.48;5.50;;;;;;;-143.54;100.00;59916.91;5091931;28;20032;-79
2023/12/25 00:47:20;;;;;;;6.30;5.28;;;;;;;-143.54;100.00;59916.91;5092494;28;20024;-80
2023/12/25 00:49:46;;;;;;;10.13;5.75;;;;;;;-143.54;100.00;59916.91;5092170;28;20027;-80
2023/12/25 00:52:14;;;;;;;10.52;5.93;;;;;;;-143.54;100.00;59916.91;5092470;28;20028;-79
2023/12/25 00:54:39;;;;;;;12.70;6.47;;;;;;;-143.54;100.00;59916.91;5092512;28;20024;-80
2023/12/25 00:57:05;;;;;;;8.82;6.40;;;;;;;-143.54;100.00;59916.91;5094026;28;20036;-80
2023/12/25 00:59:30;;;;;;;9.57;6.80;;;;;;;-143.54;100.00;59916.91;5093475;28;20036;-80
2023/12/25 01:01:55;;;;;;;10.13;7.65;;;;;;;-143.54;100.00;59916.91;5098720;28;20016;-80
2023/12/25 01:04:20;;;;;;;10.93;6.72;;;;;;;-143.54;100.00;59916.91;5092686;28;20146;-80
2023/12/25 01:06:46;;;;;;;8.25;6.60;;;;;;;-143.54;100.00;59916.91;5092089;28;20479;-79
2023/12/25 01:09:11;;;;;;;9.82;6.97;;;;;;;-143.54;100.00;59916.91;5099508;28;20099;-80
2023/12/25 01:11:43;;;;;;;8.18;6.18;;;;;;;-143.54;100.00;59916.91;5092090;28;20035;-79
2023/12/25 01:14:09;;;;;;;10.50;6.45;;;;;;;-143.54;100.00;59916.91;5086118;28;20095;-80
2023/12/25 01:16:36;;;;;;;9.40;6.10;;;;;;;-143.54;100.00;59916.91;5087223;28;20078;-80
2023/12/25 01:19:01;;;;;;;9.18;6.63;;;;;;;-143.54;100.00;59916.91;5091889;28;20119;-80
2023/12/25 01:21:26;;;;;;;10.48;6.65;;;;;;;-143.54;100.00;59916.91;5088065;28;20443;-80
2023/12/25 01:23:52;;;;;;;10.98;7.05;;;;;;;-143.54;100.00;59916.91;5087910;28;20035;-80
2023/12/25 01:26:18;;;;;;;8.63;6.30;;;;;;;-143.54;100.00;59916.91;5092080;28;20032;-79
2023/12/25 01:28:43;;;;;;;9.95;7.35;;;;;;;-143.54;100.00;59916.91;5095801;28;20097;-80
2023/12/25 01:31:09;;;;;;;12.00;6.72;;;;;;;-143.54;100.00;59916.91;5090702;28;20475;-80
2023/12/25 01:33:34;;;;;;;13.20;6.88;;;;;;;-143.54;100.00;59916.91;5086754;28;20020;-79
2023/12/25 01:35:59;;;;;;;11.30;7.45;;;;;;;-143.54;100.00;59916.91;5092534;28;20040;-80
2023/12/25 01:38:25;;;;;;;10.95;7.10;;;;;;;-143.54;100.00;59916.91;5091578;28;20119;-80
2023/12/25 01:40:50;;;;;;;12.80;7.07;;;;;;;-143.54;100.00;59916.91;5092966;28;20487;-80
2023/12/25 01:43:15;;;;;;;11.48;7.38;;;;;;;-143.54;100.00;59916.91;5091683;28;20501;-79
2023/12/25 01:45:41;;;;;;;9.82;7.30;;;;;;;-143.54;100.00;59916.91;5091993;28;20040;-80
2023/12/25 01:48:07;;;;;;;11.35;8.20;;;;;;;-143.54;100.00;59916.91;5091664;28;20028;-80
2023/12/25 01:50:33;;;;;;;15.95;8.60;;;;;;;-143.54;100.00;59916.91;5093883;28;20062;-80
2023/12/25 01:52:59;;;;;;;12.85;8.20;;;;;;;-143.54;100.00;59916.91;5097011;28;20020;-79
2023/12/25 01:55:25;;;;;;;12.48;8.38;;;;;;;-143.54;100.00;59916.91;5094003;28;20039;-80
2023/12/25 01:57:50;;;;;;;15.30;8.45;;;;;;;-143.54;100.00;59916.91;5091373;28;20040;-79
2023/12/25 02:00:16;;;;;;;13.43;8.57;;;;;;;-143.54;100.00;59916.91;5086436;28;20036;-80
2023/12/25 02:02:41;;;;;;;11.38;7.97;;;;;;;-143.54;100.00;59916.91;5092023;28;20028;-80
2023/12/25 02:05:08;;;;;;;13.05;9.13;;;;;;;-143.54;100.00;59916.91;5095984;28;20023;-80
2023/12/25 02:07:37;;;;;;;12.88;8.75;;;;;;;-143.54;100.00;59916.91;5088869;28;20027;-80
2023/12/25 02:10:02;;;;;;;12.45;8.60;;;;;;;-143.54;100.00;59916.91;5090800;28;20349;-80
2023/12/25 02:12:27;;;;;;;12.38;8.38;;;;;;;-143.54;100.00;59916.91;5094041;28;20036;-80
2023/12/25 02:14:53;;;;;;;12.75;8.52;;;;;;;-143.54;100.00;59916.91;5099810;28;20036;-80
2023/12/25 02:17:19;;;;;;;14.18;8.57;;;;;;;-143.54;100.00;59916.91;5094913;28;20036;-80
2023/12/25 02:19:45;;;;;;;13.40;9.27;;;;;;;-143.54;100.00;59916.91;5092945;28;20032;-80
2023/12/25 02:22:12;;;;;;;14.20;8.57;;;;;;;-143.54;100.00;59916.91;5092904;28;20046;-80
2023/12/25 02:24:44;;;;;;;14.00;9.23;;;;;;;-143.54;100.00;59916.91;5090718;28;20036;-80
2023/12/25 02:27:09;;;;;;;14.20;9.30;;;;;;;-143.54;100.00;59916.91;5096333;28;20028;-80
2023/12/25 02:29:35;;;;;;;12.27;8.65;;;;;;;-143.54;100.00;59916.91;5096372;28;20085;-80
2023/12/25 02:32:00;;;;;;;11.60;8.50;;;;;;;-143.54;100.00;59916.91;5094736;28;20031;-80
2023/12/25 02:34:26;;;;;;;13.32;9.07;;;;;;;-143.54;100.00;59916.91;5094422;28;20020;-79
2023/12/25 02:36:51;;;;;;;14.10;8.98;;;;;;;-143.54;100.00;59916.91;5094370;28;20024;-79
2023/12/25 02:39:17;;;;;;;12.07;8.02;;;;;;;-143.54;100.00;59916.91;5103444;28;20536;-79
2023/12/25 02:41:42;;;;;;;10.45;8.38;;;;;;;-143.54;100.00;59916.91;5094418;28;20016;-80
2023/12/25 02:44:08;;;;;;;13.07;8.70;;;;;;;-143.54;100.00;59916.91;5098908;28;20369;-80
2023/12/25 02:46:33;;;;;;;11.95;8.45;;;;;;;-143.54;100.00;59916.91;5087078;28;20027;-80
2023/12/25 02:48:58;;;;;;;15.27;8.55;;;;;;;-143.54;100.00;59916.91;5094193;28;20028;-80
2023/12/25 02:51:24;;;;;;;12.32;8.65;;;;;;;-143.54;100.00;59916.91;5103410;28;20035;-80
2023/12/25 02:53:49;;;;;;;12.77;8.38;;;;;;;-143.54;100.00;59916.91;5095097;28;20384;-80
2023/12/25 02:56:14;;;;;;;12.35;8.80;;;;;;;-143.54;100.00;59916.91;5098230;28;20140;-79
2023/12/25 02:58:39;;;;;;;12.18;8.73;;;;;;;-143.54;100.00;59916.91;5101003;28;20043;-79
2023/12/25 03:01:05;;;;;;;13.23;8.40;;;;;;;-143.54;100.00;59916.91;5101875;28;20612;-80
2023/12/25 03:03:30;;;;;;;10.88;8.45;;;;;;;-143.54;100.00;59916.91;5100716;28;20030;-80
2023/12/25 03:05:55;;;;;;;10.70;8.00;;;;;;;-143.54;100.00;59916.91;5095200;28;20055;-79
2023/12/25 03:08:20;;;;;;;11.35;7.93;;;;;;;-143.54;100.00;59916.91;5094265;28;20027;-80
2023/12/25 03:10:46;;;;;;;11.43;7.75;;;;;;;-143.54;100.00;59916.91;5092071;28;20086;-80
2023/12/25 03:13:11;;;;;;;10.57;7.55;;;;;;;-143.54;100.00;59916.91;5099130;28;20154;-79
2023/12/25 03:15:37;;;;;;;10.23;7.47;;;;;;;-143.54;100.00;59916.91;5102276;28;20426;-80
2023/12/25 03:18:02;;;;;;;8.30;6.80;;;;;;;-143.54;100.00;59916.91;5102340;28;20463;-80
2023/12/25 03:20:28;;;;;;;11.23;7.63;;;;;;;-143.54;100.00;59916.91;5098643;28;20034;-80
2023/12/25 03:22:53;;;;;;;12.70;8.25;;;;;;;-143.54;100.00;59916.91;5100867;28;20027;-80
2023/12/25 03:25:18;;;;;;;11.50;7.80;;;;;;;-143.54;100.00;59916.91;5097950;28;20026;-80
2023/12/25 03:27:44;;;;;;;11.70;7.93;;;;;;;-143.54;100.00;59916.91;5102693;28;20028;-79
2023/12/25 03:30:09;;;;;;;10.85;8.27;;;;;;;-143.54;100.00;59916.91;5099637;28;20020;-80
2023/12/25 03:32:35;;;;;;;13.65;8.40;;;;;;;-143.54;100.00;59916.91;5105120;28;20035;-80
2023/12/25 03:35:00;;;;;;;12.07;8.13;;;;;;;-143.54;100.00;59916.91;5091519;28;20035;-80
2023/12/25 03:37:26;;;;;;;13.05;8.43;;;;;;;-143.54;100.00;59916.91;5097440;28;20042;-79
2023/12/25 03:39:52;;;;;;;12.15;8.13;;;;;;;-143.54;100.00;59916.91;5096510;28;20040;-79
2023/12/25 03:42:18;;;;;;;12.60;7.55;;;;;;;-143.54;100.00;59916.91;5105042;28;20045;-79
2023/12/25 03:44:43;;;;;;;13.95;7.57;;;;;;;-143.54;100.00;59916.91;5105397;28;20023;-80
2023/12/25 03:47:08;;;;;;;10.27;7.20;;;;;;;-143.54;100.00;59916.91;5100839;28;20035;-80
2023/12/25 03:49:34;;;;;;;11.77;7.43;;;;;;;-143.54;100.00;59916.91;5100916;28;20066;-80
2023/12/25 03:51:59;;;;;;;14.30;7.32;;;;;;;-143.54;100.00;59916.91;5092338;28;20141;-80
2023/12/25 03:54:24;;;;;;;9.57;7.18;;;;;;;-143.54;100.00;59916.91;5100455;28;20039;-80
2023/12/25 03:56:50;;;;;;;11.13;6.97;;;;;;;-143.54;100.00;59916.91;5101509;28;20124;-80
2023/12/25 03:59:15;;;;;;;9.05;6.35;;;;;;;-143.54;100.00;59916.91;5100587;28;20161;-80
2023/12/25 04:01:40;;;;;;;10.27;6.30;;;;;;;-143.54;100.00;59916.91;5097340;28;20058;-80
2023/12/25 04:04:05;;;;;;;9.30;6.43;;;;;;;-143.54;100.00;59916.91;5101677;28;20035;-80
2023/12/25 04:06:31;;;;;;;10.32;7.18;;;;;;;-143.54;100.00;59916.91;5097989;28;20036;-80
2023/12/25 04:08:57;;;;;;;10.20;6.45;;;;;;;-143.54;100.00;59916.91;5105361;28;20468;-80
2023/12/25 04:11:23;;;;;;;10.50;7.00;;;;;;;-143.54;100.00;59916.91;5096873;28;20024;-80
2023/12/25 04:13:55;;;;;;;10.00;6.30;;;;;;;-143.54;100.00;59916.91;5099121;28;20020;-80
2023/12/25 04:16:22;;;;;;;10.68;6.95;;;;;;;-143.54;100.00;59916.91;5091739;28;20371;-80
2023/12/25 04:18:48;;;;;;;9.98;7.20;;;;;;;-143.54;100.00;59916.91;5100414;28;20024;-81
2023/12/25 04:21:27;;;;;;;9.00;5.95;;;;;;;-143.54;100.00;59916.91;5099772;28;20022;-79
2023/12/25 04:23:54;;;;;;;10.05;6.13;;;;;;;-143.54;100.00;59916.91;5094963;28;20031;-80
2023/12/25 04:26:20;;;;;;;9.93;5.97;;;;;;;-143.54;100.00;59916.91;5101241;28;20028;-80
2023/12/25 04:28:47;;;;;;;8.02;5.80;;;;;;;-143.54;100.00;59916.91;5098170;28;20024;-80
2023/12/25 04:31:12;;;;;;;8.35;5.93;;;;;;;-143.54;100.00;59916.91;5101588;28;20024;-79
2023/12/25 04:33:38;;;;;;;7.63;5.88;;;;;;;-143.54;100.00;59916.91;5097043;28;20023;-80
2023/12/25 04:36:03;;;;;;;8.25;5.30;;;;;;;-143.54;100.00;59916.91;5100797;28;20076;-79
2023/12/25 04:38:29;;;;;;;9.55;5.38;;;;;;;-143.54;100.00;59916.91;5096285;28;20054;-80
2023/12/25 04:40:54;;;;;;;8.48;5.75;;;;;;;-143.54;100.00;59916.91;5101598;28;20516;-79
2023/12/25 04:43:19;;;;;;;6.50;4.88;;;;;;;-143.54;100.00;59916.91;5100967;28;20047;-80
2023/12/25 04:45:45;;;;;;;7.32;4.90;;;;;;;-143.54;100.00;59916.91;5112107;28;20031;-80
2023/12/25 04:48:10;;;;;;;5.70;4.93;;;;;;;-143.54;100.00;59916.91;5096769;28;20032;-80
2023/12/25 04:50:38;;;;;;;8.50;4.88;;;;;;;-143.54;100.00;59916.91;5101391;28;20026;-80
2023/12/25 04:53:03;;;;;;;6.70;4.97;;;;;;;-143.54;100.00;59916.91;5096129;28;20032;-80
2023/12/25 04:55:28;;;;;;;8.27;5.65;;;;;;;-143.54;100.00;59916.91;5097593;28;20028;-79
2023/12/25 04:57:54;;;;;;;6.30;4.68;;;;;;;-143.54;100.00;59916.91;5092085;28;20582;-80
2023/12/25 05:00:20;;;;;;;6.60;4.88;;;;;;;-143.54;100.00;59916.91;5100475;28;20032;-79
2023/12/25 05:02:45;;;;;;;6.50;4.43;;;;;;;-143.54;100.00;59916.91;5100416;28;20112;-80
2023/12/25 05:05:10;;;;;;;7.03;4.35;;;;;;;-143.54;100.00;59916.91;5096053;28;20433;-80
2023/12/25 05:07:36;;;;;;;6.15;4.03;;;;;;;-143.54;100.00;59916.91;5095645;28;20051;-80
2023/12/25 05:10:01;;;;;;;9.77;3.95;;;;;;;-143.54;100.00;59916.91;5095101;28;20024;-80
2023/12/25 05:12:26;;;;;;;5.72;3.67;;;;;;;-143.54;100.00;59916.91;5099704;28;20467;-80
2023/12/25 05:14:51;;;;;;;5.60;3.80;;;;;;;-143.54;100.00;59916.91;5095677;28;20065;-80
2023/12/25 05:17:17;;;;;;;4.40;3.00;;;;;;;-143.54;100.00;59916.91;5098007;28;20035;-79
2023/12/25 05:19:42;;;;;;;4.10;2.75;;;;;;;-143.54;100.00;59916.91;5099506;28;20467;-80
2023/12/25 05:22:09;;;;;;;3.90;2.70;;;;;;;-143.54;100.00;59916.91;5097165;28;20028;-80
2023/12/25 05:24:35;;;;;;;3.10;2.38;;;;;;;-143.54;100.00;59916.91;5097206;28;20111;-80
2023/12/25 05:27:01;;;;;;;2.72;2.20;;;;;;;-143.54;100.00;59916.91;5093084;28;20063;-79
2023/12/25 05:29:26;;;;;;;3.63;1.90;;;;;;;-143.54;100.00;59916.91;5099790;28;20103;-80
2023/12/25 05:31:52;;;;;;;3.88;2.10;;;;;;;-143.54;100.00;59916.91;5101287;28;20432;-80
2023/12/25 05:34:17;;;;;;;2.55;1.70;;;;;;;-143.54;100.00;59916.91;5096125;28;20028;-80
2023/12/25 05:36:42;;;;;;;4.05;2.30;;;;;;;-143.54;100.00;59916.91;5091494;28;20081;-80
2023/12/25 05:39:08;;;;;;;3.72;2.33;;;;;;;-143.54;100.00;59916.91;5097723;28;20073;-80
2023/12/25 05:41:34;;;;;;;3.88;2.15;;;;;;;-143.54;100.00;59916.91;5094394;28;20016;-79
2023/12/25 05:43:59;;;;;;;4.18;2.03;;;;;;;-143.54;100.00;59916.91;5100698;28;20095;-80
2023/12/25 05:46:24;;;;;;;2.63;2.00;;;;;;;-143.54;100.00;59916.91;5099297;28;20036;-79
2023/12/25 05:48:50;;;;;;;2.65;2.17;;;;;;;-143.54;100.00;59916.91;5096406;28;20069;-80
2023/12/25 05:51:15;;;;;;;3.67;2.40;;;;;;;-143.54;100.00;59916.91;5098717;28;20035;-80
2023/12/25 05:53:40;;;;;;;3.92;2.33;;;;;;;-143.54;100.00;59916.91;5095029;28;20032;-80
2023/12/25 05:56:06;;;;;;;2.50;1.90;;;;;;;-143.54;100.00;59916.91;5106221;28;20034;-80
2023/12/25 05:58:31;;;;;;;5.10;2.78;;;;;;;-143.54;100.00;59916.91;5089259;28;20044;-80
2023/12/25 06:00:57;;;;;;;3.38;2.50;;;;;;;-143.54;100.00;59916.91;5104633;28;20430;-80
2023/12/25 06:03:22;;;;;;;3.50;2.10;;;;;;;-143.54;100.00;59916.91;5098450;28;20103;-79
2023/12/25 06:05:47;;;;;;;3.42;2.38;;;;;;;-143.54;100.00;59916.91;5104599;28;20028;-79
2023/12/25 06:08:13;;;;;;;3.47;2.35;;;;;;;-143.54;100.00;59916.91;5099988;28;20027;-80
2023/12/25 06:10:38;;;;;;;4.75;3.20;;;;;;;-143.54;100.00;59916.91;5097967;28;20393;-80
2023/12/25 06:13:03;;;;;;;4.65;2.70;;;;;;;-143.54;100.00;59916.91;5100660;28;20078;-80
2023/12/25 06:15:28;;;;;;;4.38;2.83;;;;;;;-143.54;100.00;59916.91;5098587;28;20458;-80
2023/12/25 06:17:54;;;;;;;3.90;2.60;;;;;;;-143.54;100.00;59916.91;5100953;28;20046;-80
2023/12/25 06:20:20;;;;;;;6.47;3.20;;;;;;;-143.54;100.00;59916.91;5099963;28;20028;-80
2023/12/25 06:22:46;;;;;;;6.30;3.30;;;;;;;-143.54;100.00;59916.91;5106027;28;20376;-80
2023/12/25 06:25:12;;;;;;;3.83;2.85;;;;;;;-143.54;100.00;59916.91;5101072;28;20023;-80
2023/12/25 06:27:37;;;;;;;5.60;3.58;;;;;;;-143.54;100.00;59916.91;5096577;28;20106;-80
2023/12/25 06:30:04;;;;;;;5.95;3.60;;;;;;;-143.54;100.00;59916.91;5104586;28;20032;-80
2023/12/25 06:32:29;;;;;;;5.75;3.55;;;;;;;-143.54;100.00;59916.91;5094771;28;20062;-80
2023/12/25 06:34:55;;;;;;;7.55;3.80;;;;;;;-143.54;100.00;59916.91;5109469;28;20062;-80
2023/12/25 06:37:20;;;;;;;4.90;3.25;;;;;;;-143.54;100.00;59916.91;5103001;28;20043;-80
2023/12/25 06:39:45;;;;;;;5.32;3.20;;;;;;;-143.54;100.00;59916.91;5098686;28;20472;-80
2023/12/25 06:42:11;;;;;;;4.53;3.10;;;;;;;-143.54;100.00;59916.91;5105419;28;20467;-80
2023/12/25 06:44:38;;;;;;;3.28;2.42;;;;;;;-143.54;100.00;59916.91;5104262;28;20024;-80
2023/12/25 06:47:04;;;;;;;5.55;3.10;;;;;;;-143.54;100.00;59916.91;5108350;28;20034;-80
2023/12/25 06:49:29;;;;;;;4.00;2.80;;;;;;;-143.54;100.00;59916.91;5098714;28;20445;-79
2023/12/25 06:51:54;;;;;;;5.55;3.47;;;;;;;-143.54;100.00;59916.91;5103627;28;20081;-80
2023/12/25 06:54:19;;;;;;;5.97;3.60;;;;;;;-143.54;100.00;59916.91;5098450;28;20526;-80
2023/12/25 06:56:45;;;;;;;6.70;4.18;;;;;;;-143.54;100.00;59916.91;5101322;28;20040;-80
2023/12/25 06:59:10;;;;;;;7.15;3.40;;;;;;;-143.54;100.00;59916.91;5098120;28;20051;-80
2023/12/25 07:01:35;;;;;;;7.65;4.70;;;;;;;-143.54;100.00;59916.91;5099064;28;20024;-80
2023/12/25 07:04:01;;;;;;;6.65;4.50;;;;;;;-143.54;100.00;59916.91;5097496;28;20108;-80
2023/12/25 07:06:26;;;;;;;8.82;5.40;;;;;;;-143.54;100.00;59916.91;5092519;28;20032;-80
2023/12/25 07:08:52;;;;;;;11.23;5.97;;;;;;;-143.54;100.00;59916.91;5087928;28;20039;-80
2023/12/25 07:11:17;;;;;;;8.35;6.15;;;;;;;-143.54;100.00;59916.91;5104590;28;20024;-80
2023/12/25 07:13:43;;;;;;;9.32;6.10;;;;;;;-143.54;100.00;59916.91;5099195;28;20027;-80
2023/12/25 07:16:09;;;;;;;11.95;7.05;;;;;;;-143.54;100.00;59916.91;5103356;28;20023;-80
2023/12/25 07:18:35;;;;;;;10.55;6.95;;;;;;;-143.54;100.00;59916.91;5095986;28;20030;-80
2023/12/25 07:21:00;;;;;;;11.57;7.47;;;;;;;-143.54;100.00;59916.91;5106272;28;20032;-80
2023/12/25 07:23:25;;;;;;;12.68;7.55;;;;;;;-143.54;100.00;59916.91;5096583;28;20046;-80
2023/12/25 07:25:51;;;;;;;11.10;7.78;;;;;;;-143.54;100.00;59916.91;5103245;28;20312;-80
2023/12/25 07:28:16;;;;;;;12.30;7.45;;;;;;;-143.54;100.00;59916.91;5101269;28;20019;-80
2023/12/25 07:30:43;;;;;;;11.52;7.95;;;;;;;-143.54;100.00;59916.91;5104278;28;20038;-80
2023/12/25 07:33:09;;;;;;;12.30;7.53;;;;;;;-143.54;100.00;59916.91;5099280;28;20027;-80
2023/12/25 07:35:34;;;;;;;12.23;8.20;;;;;;;-143.54;100.00;59916.91;5097275;28;20386;-80
2023/12/25 07:38:00;;;;;;;13.32;7.47;;;;;;;-143.54;100.00;59916.91;5094589;28;20035;-79
2023/12/25 07:40:25;;;;;;;11.50;6.93;;;;;;;-143.54;100.00;59916.91;5102045;28;20028;-80
2023/12/25 07:42:50;;;;;;;11.82;7.72;;;;;;;-143.54;100.00;59916.91;5077330;28;20031;-80
2023/12/25 07:45:16;;;;;;;11.77;7.63;;;;;;;-143.54;100.00;59916.91;5095919;28;20020;-80
2023/12/25 07:47:41;;;;;;;11.77;7.35;;;;;;;-143.54;100.00;59916.91;5101775;28;20531;-79
2023/12/25 07:50:08;;;;;;;13.40;7.25;;;;;;;-143.54;100.00;59916.91;5087838;28;20038;-79
2023/12/25 07:52:33;;;;;;;11.90;7.20;;;;;;;-143.54;100.00;59916.91;5098652;28;20028;-80
2023/12/25 07:54:59;;;;;;;12.88;6.90;;;;;;;-143.54;100.00;59916.91;5097285;28;20036;-80
2023/12/25 07:57:24;;;;;;;10.50;6.63;;;;;;;-143.54;100.00;59916.91;5094194;28;20502;-79
2023/12/25 07:59:49;;;;;;;11.15;6.68;;;;;;;-143.54;100.00;59916.91;5098091;28;20089;-80
2023/12/25 08:02:15;;;;;;;10.40;6.55;;;;;;;-143.54;100.00;59916.91;5102652;28;20020;-80
2023/12/25 08:04:40;;;;;;;11.23;5.97;;;;;;;-143.54;100.00;59916.91;5096213;28;20069;-80
2023/12/25 08:07:06;;;;;;;9.85;6.55;;;;;;;-143.54;100.00;59916.91;5099100;28;20097;-80
2023/12/25 08:09:31;;;;;;;11.25;7.13;;;;;;;-143.54;100.00;59916.91;5093274;28;20024;-80
2023/12/25 08:11:57;;;;;;;10.65;6.28;;;;;;;-143.54;100.00;59916.91;5100913;28;20027;-80
2023/12/25 08:14:22;;;;;;;12.52;7.50;;;;;;;-143.54;100.00;59916.91;5098557;28;20032;-79
2023/12/25 08:16:47;;;;;;;10.57;6.80;;;;;;;-143.54;100.00;59916.91;5096239;28;20103;-80
2023/12/25 08:19:13;;;;;;;12.73;6.80;;;;;;;-143.54;100.00;59916.91;5098411;28;20020;-79
2023/12/25 08:21:40;;;;;;;13.95;7.45;;;;;;;-143.54;100.00;59916.91;5105771;28;20058;-79
2023/12/25 08:24:06;;;;;;;13.40;7.15;;;;;;;-143.54;100.00;59916.91;5100292;28;20073;-79
2023/12/25 08:26:31;;;;;;;11.43;6.93;;;;;;;-143.54;100.00;59916.91;5099232;28;20130;-79
2023/12/25 08:28:57;;;;;;;11.13;7.05;;;;;;;-143.54;100.00;59916.91;5094771;28;20032;-79
2023/12/25 08:31:22;;;;;;;9.95;6.38;;;;;;;-143.54;100.00;59916.91;5100675;28;20031;-79
2023/12/25 08:33:48;;;;;;;12.07;7.03;;;;;;;-143.54;100.00;59916.91;5098808;28;20019;-80
2023/12/25 08:36:13;;;;;;;17.83;7.50;;;;;;;-143.54;100.00;59916.91;5098895;28;20030;-79
2023/12/25 08:38:38;;;;;;;11.70;6.78;;;;;;;-143.54;100.00;59916.91;5102080;28;20027;-79
2023/12/25 08:41:04;;;;;;;10.85;6.68;;;;;;;-143.54;100.00;59916.91;5094848;28;20024;-79
2023/12/25 08:43:30;;;;;;;11.48;7.40;;;;;;;-143.54;100.00;59916.91;5099920;28;20032;-80
2023/12/25 08:45:55;;;;;;;12.48;7.47;;;;;;;-143.54;100.00;59916.91;5099281;28;20390;-80
2023/12/25 08:48:21;;;;;;;13.15;7.25;;;;;;;-143.54;100.00;59916.91;5091370;28;20093;-79
2023/12/25 08:50:46;;;;;;;11.68;7.72;;;;;;;-143.54;100.00;59916.91;5095897;28;20039;-80
2023/12/25 08:53:12;;;;;;;12.18;7.90;;;;;;;-143.54;100.00;59916.91;5093390;28;20024;-79
2023/12/25 08:55:39;;;;;;;12.95;8.13;;;;;;;-143.54;100.00;59916.91;5090392;28;20024;-79
2023/12/25 08:58:04;;;;;;;14.73;7.95;;;;;;;-143.54;100.00;59916.91;5088304;28;20568;-78
2023/12/25 09:00:30;;;;;;;13.23;8.15;;;;;;;-143.54;100.00;59916.91;5089514;28;20028;-79
2023/12/25 09:02:56;;;;;;;14.32;8.65;;;;;;;-143.54;100.00;59916.91;5100555;28;20510;-79
2023/12/25 09:05:21;;;;;;;12.90;8.30;;;;;;;-143.54;100.00;59916.91;5095616;28;20023;-79
2023/12/25 09:07:46;;;;;;;13.15;7.80;;;;;;;-143.54;100.00;59916.91;5098659;28;20024;-79
2023/12/25 09:10:11;;;;;;;15.35;8.88;;;;;;;-143.54;100.00;59916.91;5092238;28;20138;-79
2023/12/25 09:12:38;;;;;;;15.43;9.38;;;;;;;-143.54;100.00;59916.91;5098478;28;20065;-79
2023/12/25 09:15:04;;;;;;;17.40;9.10;;;;;;;-143.54;100.00;59916.91;5091072;28;20108;-79
2023/12/25 09:17:30;;;;;;;16.35;9.00;;;;;;;-143.54;100.00;59916.91;5098597;28;20032;-79
2023/12/25 09:19:56;;;;;;;14.80;8.25;;;;;;;-143.54;100.00;59916.91;5095660;28;20050;-79
2023/12/25 09:22:23;;;;;;;13.13;8.00;;;;;;;-143.54;100.00;59916.91;5101608;28;20065;-79
2023/12/25 09:24:50;;;;;;;12.23;7.28;;;;;;;-143.54;100.00;59916.91;5098182;28;20123;-79
2023/12/25 09:27:15;;;;;;;11.13;6.47;;;;;;;-143.54;100.00;59916.91;5091061;28;20360;-79
2023/12/25 09:29:41;;;;;;;14.30;6.80;;;;;;;-143.54;100.00;59916.91;5098197;28;20047;-79
2023/12/25 09:32:06;;;;;;;9.13;5.40;;;;;;;-143.54;100.00;59916.91;5097357;28;20193;-79
2023/12/25 09:34:32;;;;;;;9.25;5.68;;;;;;;-143.54;100.00;59916.91;5101451;28;20016;-79
2023/12/25 09:36:58;;;;;;;8.70;5.15;;;;;;;-143.54;100.00;59916.91;5103833;28;20027;-79
2023/12/25 09:39:23;;;;;;;6.32;4.28;;;;;;;-143.54;100.00;59916.91;5094091;28;20024;-79
2023/12/25 09:41:49;;;;;;;6.13;4.30;;;;;;;-143.54;100.00;59916.91;5093262;28;20107;-79
2023/12/25 09:44:14;;;;;;;5.43;3.70;;;;;;;-143.54;100.00;59916.91;5099503;28;20089;-79
2023/12/25 09:46:40;;;;;;;5.22;3.40;;;;;;;-143.54;100.00;59916.91;5097455;28;20098;-79
2023/12/25 09:49:06;;;;;;;5.10;3.10;;;;;;;-143.54;100.00;59916.91;5101317;28;20162;-80
2023/12/25 09:51:34;;;;;;;4.47;3.20;;;;;;;-143.54;100.00;59916.91;5101248;28;20475;-79
2023/12/25 09:54:01;;;;;;;6.22;3.50;;;;;;;-143.54;100.00;59916.91;5094396;28;20069;-79
2023/12/25 09:56:28;;;;;;;4.03;2.75;;;;;;;-143.54;100.00;59916.91;5089637;28;20028;-80
2023/12/25 09:58:55;;;;;;;3.58;2.72;;;;;;;-143.54;100.00;59916.91;5097125;28;20044;-80
2023/12/25 10:01:21;;;;;;;4.97;2.90;;;;;;;-143.54;100.00;59916.91;5096962;28;20027;-80
2023/12/25 10:03:46;;;;;;;6.28;2.78;;;;;;;-143.54;100.00;59916.91;5090724;28;20025;-79
2023/12/25 10:06:12;;;;;;;4.70;2.85;;;;;;;-143.54;100.00;59916.91;5104319;28;20107;-79
2023/12/25 10:08:39;;;;;;;4.25;3.00;;;;;;;-143.54;100.00;59916.91;5093406;28;20469;-81
2023/12/25 10:11:07;;;;;;;5.03;3.25;;;;;;;-143.54;100.00;59916.91;5095775;28;20039;-79
2023/12/25 10:13:33;;;;;;;5.18;3.35;;;;;;;-143.54;100.00;59916.91;5096216;28;20402;-79
2023/12/25 10:16:05;;;;;;;4.05;3.05;;;;;;;-143.54;100.00;59916.91;5100732;28;20016;-80
2023/12/25 10:18:32;;;;;;;4.32;3.00;;;;;;;-143.54;100.00;59916.91;5091840;28;20075;-80
2023/12/25 10:20:59;;;;;;;3.97;3.05;;;;;;;-143.54;100.00;59916.91;5093069;28;20415;-80
2023/12/25 10:23:34;;;;;;;5.38;3.30;;;;;;;-143.54;100.00;59916.91;5098586;28;20020;-80
2023/12/25 10:26:02;;;;;;;4.65;2.58;;;;;;;-143.54;100.00;59916.91;5096755;28;20069;-81
2023/12/25 10:28:33;;;;;;;2.38;1.52;;;;;;;-143.54;100.00;59916.91;5096639;28;20468;-81
2023/12/25 10:30:59;;;;;;;3.13;1.40;;;;;;;-143.54;100.00;59916.91;5093324;28;20352;-81
2023/12/25 10:33:25;;;;;;;3.72;1.73;;;;;;;-143.54;100.00;59916.91;5098465;28;20052;-81
2023/12/25 10:36:01;;;;;;;3.15;1.60;;;;;;;-143.54;100.00;59916.91;5103658;28;20063;-80
2023/12/25 10:38:26;;;;;;;2.53;1.40;;;;;;;-143.54;100.00;59916.91;5095864;28;20439;-80
2023/12/25 10:40:52;;;;;;;2.45;1.90;;;;;;;-143.54;100.00;59916.91;5093065;28;20058;-80
2023/12/25 10:43:21;;;;;;;2.28;1.60;;;;;;;-143.54;100.00;59916.91;5099162;28;20027;-80
2023/12/25 10:45:50;;;;;;;2.75;1.75;;;;;;;-143.54;100.00;59916.91;5096705;28;20550;-80
2023/12/25 10:48:17;;;;;;;3.40;1.63;;;;;;;-143.54;100.00;59916.91;5088937;28;20372;-80
2023/12/25 10:50:44;;;;;;;3.05;1.65;;;;;;;-143.54;100.00;59916.91;5103209;28;20467;-80
2023/12/25 10:53:12;;;;;;;6.38;2.03;;;;;;;-143.54;100.00;59916.91;5095390;28;20474;-80
2023/12/25 10:55:41;;;;;;;2.60;1.90;;;;;;;-143.54;100.00;59916.91;5096530;28;20020;-80
2023/12/25 10:58:08;;;;;;;4.43;2.08;;;;;;;-143.54;100.00;59916.91;5094130;28;20058;-80